Partly Cloudy Current Weather (METAR) For Bournemouth Airport

All times on the weather descriptions are local

Observed at 09:50 - (23 mins ago)

Partly Cloudy

5°C

Partly Cloudy
Clouds: Scattered Clouds at 2,500ft, Scattered Clouds at 3,700ft
Wind: 260° at 08 knots
Visibility: Greater than 10km
QNH: 0988
Dew Point: 3°C
Runway in Use: Runway 26

Sunrise Today: 07:45
Sunset Today: 16:55

Forecast Weather (TAF) For Bournemouth Airport

Issued at 00:00 - (1 day 13 hrs ago)


Runway in Use: Unable to determine, wind is clam

Forecast valid until 00:00 on Saturday

METAR/TAF RAW METAR / TAF

EGHH 290950Z 26008KT 9999 SCT025 SCT037 05/03 Q0988

Weather Widget

Put weather from any of our airports on your website with our weather widget.

Find Another Search

Airport Search


Please Wait Please Wait - Loading
Close
Close

Login

Username:

Password:

Remember Me:

Remember me on this computer

Forgotten your password? Get a reset password sent to your registered e-mail address

Close

User Private Message

Subject:

Message: